TAF and METAR

Decoding for American and Canadian METARs and TAFs is not fully implemented.

Could not understand the following METAR

KMYP 181256Z AUTO 22013KT 10SM SCT018 BKN023 M07/M09 A3038 RMK AO2
No TAF available for Monarch Pass Weather Station
Monarch Pass Weather Station in United States of America at 3667m

Latest 5 airports